sensor_id;sensor_type;location;lat;lon;timestamp;temperature;humidity
30288;DHT22;17103;48.316;11.558;2023-06-01T00:01:21;23.80;31.10
30288;DHT22;17103;48.316;11.558;2023-06-01T00:03:47;23.70;31.20
30288;DHT22;17103;48.316;11.558;2023-06-01T00:06:13;23.70;31.40
30288;DHT22;17103;48.316;11.558;2023-06-01T00:08:39;23.70;31.50
30288;DHT22;17103;48.316;11.558;2023-06-01T00:11:04;23.70;31.60
30288;DHT22;17103;48.316;11.558;2023-06-01T00:13:30;23.70;31.70
30288;DHT22;17103;48.316;11.558;2023-06-01T00:15:56;23.60;31.60
30288;DHT22;17103;48.316;11.558;2023-06-01T00:18:21;23.60;31.70
30288;DHT22;17103;48.316;11.558;2023-06-01T00:20:47;23.60;31.80
30288;DHT22;17103;48.316;11.558;2023-06-01T00:23:13;23.60;31.80
30288;DHT22;17103;48.316;11.558;2023-06-01T00:25:42;23.50;31.70
30288;DHT22;17103;48.316;11.558;2023-06-01T00:28:07;23.50;31.80
30288;DHT22;17103;48.316;11.558;2023-06-01T00:30:33;23.50;31.90
30288;DHT22;17103;48.316;11.558;2023-06-01T00:32:58;23.50;31.90
30288;DHT22;17103;48.316;11.558;2023-06-01T00:35:24;23.50;32.00
30288;DHT22;17103;48.316;11.558;2023-06-01T00:37:50;23.40;31.70
30288;DHT22;17103;48.316;11.558;2023-06-01T00:40:16;23.40;31.90
30288;DHT22;17103;48.316;11.558;2023-06-01T00:42:42;23.30;31.80
30288;DHT22;17103;48.316;11.558;2023-06-01T00:45:07;23.30;31.80
30288;DHT22;17103;48.316;11.558;2023-06-01T00:47:39;23.30;31.90
30288;DHT22;17103;48.316;11.558;2023-06-01T00:50:07;23.30;32.30
30288;DHT22;17103;48.316;11.558;2023-06-01T00:52:33;23.30;32.20
30288;DHT22;17103;48.316;11.558;2023-06-01T00:54:58;23.20;32.20
30288;DHT22;17103;48.316;11.558;2023-06-01T00:57:24;23.20;32.20
30288;DHT22;17103;48.316;11.558;2023-06-01T00:59:53;23.20;32.20
30288;DHT22;17103;48.316;11.558;2023-06-01T01:02:18;23.20;32.20
30288;DHT22;17103;48.316;11.558;2023-06-01T01:05:09;23.20;32.80
30288;DHT22;17103;48.316;11.558;2023-06-01T01:15:48;23.00;32.50
30288;DHT22;17103;48.316;11.558;2023-06-01T01:21:04;23.00;32.60
30288;DHT22;17103;48.316;11.558;2023-06-01T01:24:23;23.00;32.50
30288;DHT22;17103;48.316;11.558;2023-06-01T01:27:04;23.00;32.80
30288;DHT22;17103;48.316;11.558;2023-06-01T01:29:32;23.00;32.50
30288;DHT22;17103;48.316;11.558;2023-06-01T01:32:00;22.90;33.10
30288;DHT22;17103;48.316;11.558;2023-06-01T01:34:28;23.00;32.80
30288;DHT22;17103;48.316;11.558;2023-06-01T01:36:55;22.90;32.80
30288;DHT22;17103;48.316;11.558;2023-06-01T01:39:21;22.90;32.70
30288;DHT22;17103;48.316;11.558;2023-06-01T01:41:47;22.80;32.70
30288;DHT22;17103;48.316;11.558;2023-06-01T01:44:13;22.80;32.80
30288;DHT22;17103;48.316;11.558;2023-06-01T01:46:44;22.80;32.70
30288;DHT22;17103;48.316;11.558;2023-06-01T01:49:25;22.80;32.80
30288;DHT22;17103;48.316;11.558;2023-06-01T01:52:02;22.80;33.00
30288;DHT22;17103;48.316;11.558;2023-06-01T01:54:29;22.70;33.20
30288;DHT22;17103;48.316;11.558;2023-06-01T01:56:58;22.80;32.90
30288;DHT22;17103;48.316;11.558;2023-06-01T01:59:25;22.70;32.90
30288;DHT22;17103;48.316;11.558;2023-06-01T02:01:52;22.80;33.00
30288;DHT22;17103;48.316;11.558;2023-06-01T02:04:18;22.70;32.90
30288;DHT22;17103;48.316;11.558;2023-06-01T02:06:43;22.70;32.90
30288;DHT22;17103;48.316;11.558;2023-06-01T02:09:09;22.70;33.00
30288;DHT22;17103;48.316;11.558;2023-06-01T02:11:35;22.70;33.10
30288;DHT22;17103;48.316;11.558;2023-06-01T02:14:01;22.60;33.50
30288;DHT22;17103;48.316;11.558;2023-06-01T02:16:27;22.60;32.90
30288;DHT22;17103;48.316;11.558;2023-06-01T02:18:53;22.60;32.90
30288;DHT22;17103;48.316;11.558;2023-06-01T02:21:19;22.60;32.90
30288;DHT22;17103;48.316;11.558;2023-06-01T02:23:46;22.50;32.90
30288;DHT22;17103;48.316;11.558;2023-06-01T02:26:12;22.50;32.90
30288;DHT22;17103;48.316;11.558;2023-06-01T02:28:38;22.50;33.00
30288;DHT22;17103;48.316;11.558;2023-06-01T02:31:07;22.50;33.10
30288;DHT22;17103;48.316;11.558;2023-06-01T02:33:33;22.40;33.10
30288;DHT22;17103;48.316;11.558;2023-06-01T02:35:59;22.40;33.00
30288;DHT22;17103;48.316;11.558;2023-06-01T02:38:25;22.40;33.10
30288;DHT22;17103;48.316;11.558;2023-06-01T02:40:51;22.40;33.20
30288;DHT22;17103;48.316;11.558;2023-06-01T02:43:17;22.30;33.00
30288;DHT22;17103;48.316;11.558;2023-06-01T02:45:42;22.20;33.00
30288;DHT22;17103;48.316;11.558;2023-06-01T02:48:09;22.30;33.20
30288;DHT22;17103;48.316;11.558;2023-06-01T02:50:35;22.30;33.30
30288;DHT22;17103;48.316;11.558;2023-06-01T02:53:01;22.20;33.10
30288;DHT22;17103;48.316;11.558;2023-06-01T02:55:27;22.20;33.30
30288;DHT22;17103;48.316;11.558;2023-06-01T02:57:53;22.20;33.30
30288;DHT22;17103;48.316;11.558;2023-06-01T03:00:18;22.20;33.40
30288;DHT22;17103;48.316;11.558;2023-06-01T03:02:48;22.20;33.40
30288;DHT22;17103;48.316;11.558;2023-06-01T03:05:14;22.10;33.40
30288;DHT22;17103;48.316;11.558;2023-06-01T03:07:46;22.00;33.40
30288;DHT22;17103;48.316;11.558;2023-06-01T03:10:11;22.00;33.70
30288;DHT22;17103;48.316;11.558;2023-06-01T03:12:38;22.00;33.50
30288;DHT22;17103;48.316;11.558;2023-06-01T03:15:04;22.00;33.50
30288;DHT22;17103;48.316;11.558;2023-06-01T03:17:31;21.90;33.60
30288;DHT22;17103;48.316;11.558;2023-06-01T03:19:57;22.00;33.70
30288;DHT22;17103;48.316;11.558;2023-06-01T03:22:23;21.90;33.80
30288;DHT22;17103;48.316;11.558;2023-06-01T03:24:49;21.90;33.80
30288;DHT22;17103;48.316;11.558;2023-06-01T03:27:16;21.90;33.90
30288;DHT22;17103;48.316;11.558;2023-06-01T03:29:42;21.80;33.90
30288;DHT22;17103;48.316;11.558;2023-06-01T03:32:08;21.80;34.50
30288;DHT22;17103;48.316;11.558;2023-06-01T03:34:33;21.70;33.90
30288;DHT22;17103;48.316;11.558;2023-06-01T03:37:05;21.70;33.90
30288;DHT22;17103;48.316;11.558;2023-06-01T03:39:33;21.70;34.00
30288;DHT22;17103;48.316;11.558;2023-06-01T03:42:00;21.70;34.00
30288;DHT22;17103;48.316;11.558;2023-06-01T03:44:25;21.70;34.00
30288;DHT22;17103;48.316;11.558;2023-06-01T03:46:51;21.70;34.00
30288;DHT22;17103;48.316;11.558;2023-06-01T03:49:17;21.60;33.80
30288;DHT22;17103;48.316;11.558;2023-06-01T03:51:42;21.50;33.70
30288;DHT22;17103;48.316;11.558;2023-06-01T03:54:08;21.60;33.80
30288;DHT22;17103;48.316;11.558;2023-06-01T03:56:34;21.60;33.80
30288;DHT22;17103;48.316;11.558;2023-06-01T03:59:00;21.50;33.70
30288;DHT22;17103;48.316;11.558;2023-06-01T04:01:27;21.50;33.70
30288;DHT22;17103;48.316;11.558;2023-06-01T04:03:57;21.50;33.70
30288;DHT22;17103;48.316;11.558;2023-06-01T04:06:23;21.50;33.70
30288;DHT22;17103;48.316;11.558;2023-06-01T04:08:50;21.50;33.70
30288;DHT22;17103;48.316;11.558;2023-06-01T04:11:21;21.50;33.70
30288;DHT22;17103;48.316;11.558;2023-06-01T04:13:47;21.50;33.80
30288;DHT22;17103;48.316;11.558;2023-06-01T04:16:13;21.50;33.80
30288;DHT22;17103;48.316;11.558;2023-06-01T04:18:39;21.50;33.80
30288;DHT22;17103;48.316;11.558;2023-06-01T04:21:04;21.50;33.80
30288;DHT22;17103;48.316;11.558;2023-06-01T04:23:32;21.50;33.80
30288;DHT22;17103;48.316;11.558;2023-06-01T04:25:58;21.50;33.90
30288;DHT22;17103;48.316;11.558;2023-06-01T04:28:27;21.50;33.90
30288;DHT22;17103;48.316;11.558;2023-06-01T04:30:54;21.50;33.90
30288;DHT22;17103;48.316;11.558;2023-06-01T04:33:20;21.50;33.90
30288;DHT22;17103;48.316;11.558;2023-06-01T04:35:48;21.50;34.00
30288;DHT22;17103;48.316;11.558;2023-06-01T04:38:14;21.70;34.20
30288;DHT22;17103;48.316;11.558;2023-06-01T04:40:42;21.50;34.10
30288;DHT22;17103;48.316;11.558;2023-06-01T04:43:10;21.60;34.70
30288;DHT22;17103;48.316;11.558;2023-06-01T04:45:37;21.60;34.20
30288;DHT22;17103;48.316;11.558;2023-06-01T04:48:05;21.60;34.20
30288;DHT22;17103;48.316;11.558;2023-06-01T04:50:43;21.60;34.30
30288;DHT22;17103;48.316;11.558;2023-06-01T04:53:10;21.60;34.40
30288;DHT22;17103;48.316;11.558;2023-06-01T04:55:36;21.70;34.50
30288;DHT22;17103;48.316;11.558;2023-06-01T04:58:20;21.70;34.50
30288;DHT22;17103;48.316;11.558;2023-06-01T05:00:51;21.70;34.70
30288;DHT22;17103;48.316;11.558;2023-06-01T05:03:19;21.70;34.80
30288;DHT22;17103;48.316;11.558;2023-06-01T05:05:50;21.80;34.80
30288;DHT22;17103;48.316;11.558;2023-06-01T05:08:16;21.80;34.80
30288;DHT22;17103;48.316;11.558;2023-06-01T05:10:46;21.80;34.80
30288;DHT22;17103;48.316;11.558;2023-06-01T05:13:16;21.80;34.90
30288;DHT22;17103;48.316;11.558;2023-06-01T05:15:44;21.90;35.00
30288;DHT22;17103;48.316;11.558;2023-06-01T05:18:13;21.90;35.00
30288;DHT22;17103;48.316;11.558;2023-06-01T05:20:38;21.90;34.90
30288;DHT22;17103;48.316;11.558;2023-06-01T05:23:04;21.80;34.30
30288;DHT22;17103;48.316;11.558;2023-06-01T05:25:29;22.00;35.00
30288;DHT22;17103;48.316;11.558;2023-06-01T05:27:55;22.10;35.10
30288;DHT22;17103;48.316;11.558;2023-06-01T05:30:22;22.00;35.00
30288;DHT22;17103;48.316;11.558;2023-06-01T05:32:47;22.10;35.00
30288;DHT22;17103;48.316;11.558;2023-06-01T05:35:13;22.10;35.10
30288;DHT22;17103;48.316;11.558;2023-06-01T05:37:41;22.20;35.10
30288;DHT22;17103;48.316;11.558;2023-06-01T05:40:08;22.20;35.20
30288;DHT22;17103;48.316;11.558;2023-06-01T05:42:34;22.30;35.20
30288;DHT22;17103;48.316;11.558;2023-06-01T05:45:01;22.30;35.10
30288;DHT22;17103;48.316;11.558;2023-06-01T05:47:26;22.30;35.00
30288;DHT22;17103;48.316;11.558;2023-06-01T05:49:53;22.40;34.90
30288;DHT22;17103;48.316;11.558;2023-06-01T05:52:19;22.40;34.90
30288;DHT22;17103;48.316;11.558;2023-06-01T05:54:44;22.50;34.70
30288;DHT22;17103;48.316;11.558;2023-06-01T05:57:10;22.60;34.40
30288;DHT22;17103;48.316;11.558;2023-06-01T05:59:36;22.50;34.20
30288;DHT22;17103;48.316;11.558;2023-06-01T06:02:01;22.50;34.20
30288;DHT22;17103;48.316;11.558;2023-06-01T06:04:27;22.60;34.30
30288;DHT22;17103;48.316;11.558;2023-06-01T06:06:53;22.70;34.40
30288;DHT22;17103;48.316;11.558;2023-06-01T06:09:19;22.50;34.90
30288;DHT22;17103;48.316;11.558;2023-06-01T06:11:44;22.60;34.50
30288;DHT22;17103;48.316;11.558;2023-06-01T06:14:10;22.60;34.40
30288;DHT22;17103;48.316;11.558;2023-06-01T06:16:39;22.70;34.40
30288;DHT22;17103;48.316;11.558;2023-06-01T06:19:05;22.60;34.30
30288;DHT22;17103;48.316;11.558;2023-06-01T06:21:30;22.70;34.30
30288;DHT22;17103;48.316;11.558;2023-06-01T06:23:59;22.70;34.50
30288;DHT22;17103;48.316;11.558;2023-06-01T06:26:25;22.70;34.60
30288;DHT22;17103;48.316;11.558;2023-06-01T06:28:54;22.70;34.40
30288;DHT22;17103;48.316;11.558;2023-06-01T06:31:20;22.70;35.10
30288;DHT22;17103;48.316;11.558;2023-06-01T06:33:47;22.80;34.70
30288;DHT22;17103;48.316;11.558;2023-06-01T06:36:12;22.80;34.90
30288;DHT22;17103;48.316;11.558;2023-06-01T06:38:38;22.80;34.90
30288;DHT22;17103;48.316;11.558;2023-06-01T06:41:04;22.80;34.70
30288;DHT22;17103;48.316;11.558;2023-06-01T06:43:29;22.90;34.50
30288;DHT22;17103;48.316;11.558;2023-06-01T06:45:56;22.90;34.50
30288;DHT22;17103;48.316;11.558;2023-06-01T06:48:26;23.00;34.70
30288;DHT22;17103;48.316;11.558;2023-06-01T06:50:53;23.00;34.80
30288;DHT22;17103;48.316;11.558;2023-06-01T06:53:23;23.00;34.70
30288;DHT22;17103;48.316;11.558;2023-06-01T06:55:48;23.10;34.70
30288;DHT22;17103;48.316;11.558;2023-06-01T06:58:14;23.20;34.90
30288;DHT22;17103;48.316;11.558;2023-06-01T07:00:40;23.10;34.60
30288;DHT22;17103;48.316;11.558;2023-06-01T07:03:09;23.20;34.80
30288;DHT22;17103;48.316;11.558;2023-06-01T07:05:35;23.20;34.50
30288;DHT22;17103;48.316;11.558;2023-06-01T07:08:01;23.30;34.60
30288;DHT22;17103;48.316;11.558;2023-06-01T07:10:27;23.40;35.00
30288;DHT22;17103;48.316;11.558;2023-06-01T07:12:52;23.40;35.00
30288;DHT22;17103;48.316;11.558;2023-06-01T07:15:18;23.40;34.40
30288;DHT22;17103;48.316;11.558;2023-06-01T07:17:44;23.50;34.90
30288;DHT22;17103;48.316;11.558;2023-06-01T07:20:10;23.50;35.00
30288;DHT22;17103;48.316;11.558;2023-06-01T07:22:39;23.60;34.80
30288;DHT22;17103;48.316;11.558;2023-06-01T07:25:06;23.50;34.60
30288;DHT22;17103;48.316;11.558;2023-06-01T07:27:32;23.70;34.80
30288;DHT22;17103;48.316;11.558;2023-06-01T07:30:04;23.70;34.60
30288;DHT22;17103;48.316;11.558;2023-06-01T07:32:30;23.80;35.00
30288;DHT22;17103;48.316;11.558;2023-06-01T07:34:56;23.80;34.80
30288;DHT22;17103;48.316;11.558;2023-06-01T07:37:25;23.90;34.90
30288;DHT22;17103;48.316;11.558;2023-06-01T07:39:52;23.90;34.90
30288;DHT22;17103;48.316;11.558;2023-06-01T07:42:18;24.00;34.90
30288;DHT22;17103;48.316;11.558;2023-06-01T07:44:45;24.00;34.90
30288;DHT22;17103;48.316;11.558;2023-06-01T07:47:11;24.10;34.80
30288;DHT22;17103;48.316;11.558;2023-06-01T07:49:38;24.10;34.80
30288;DHT22;17103;48.316;11.558;2023-06-01T07:52:07;24.20;34.80
30288;DHT22;17103;48.316;11.558;2023-06-01T07:54:36;24.30;34.90
30288;DHT22;17103;48.316;11.558;2023-06-01T07:57:04;24.30;34.50
30288;DHT22;17103;48.316;11.558;2023-06-01T07:59:31;24.40;34.80
30288;DHT22;17103;48.316;11.558;2023-06-01T08:01:57;24.50;35.00
30288;DHT22;17103;48.316;11.558;2023-06-01T08:04:24;24.50;34.80
30288;DHT22;17103;48.316;11.558;2023-06-01T08:06:50;24.50;34.70
30288;DHT22;17103;48.316;11.558;2023-06-01T08:09:22;24.60;35.10
30288;DHT22;17103;48.316;11.558;2023-06-01T08:11:49;24.70;35.00
30288;DHT22;17103;48.316;11.558;2023-06-01T08:14:15;24.70;34.90
30288;DHT22;17103;48.316;11.558;2023-06-01T08:16:42;24.90;35.10
30288;DHT22;17103;48.316;11.558;2023-06-01T08:19:07;24.90;35.10
30288;DHT22;17103;48.316;11.558;2023-06-01T08:21:34;25.00;35.10
30288;DHT22;17103;48.316;11.558;2023-06-01T08:24:00;25.10;35.00
30288;DHT22;17103;48.316;11.558;2023-06-01T08:26:28;25.20;35.00
30288;DHT22;17103;48.316;11.558;2023-06-01T08:28:53;25.20;35.00
30288;DHT22;17103;48.316;11.558;2023-06-01T08:31:20;25.30;34.90
30288;DHT22;17103;48.316;11.558;2023-06-01T08:33:47;25.40;35.10
30288;DHT22;17103;48.316;11.558;2023-06-01T08:36:13;25.40;35.10
30288;DHT22;17103;48.316;11.558;2023-06-01T08:38:39;25.40;35.00
30288;DHT22;17103;48.316;11.558;2023-06-01T08:43:55;25.70;35.40
30288;DHT22;17103;48.316;11.558;2023-06-01T08:46:24;25.60;35.10
30288;DHT22;17103;48.316;11.558;2023-06-01T08:48:54;25.70;35.50
30288;DHT22;17103;48.316;11.558;2023-06-01T08:51:23;25.80;35.00
30288;DHT22;17103;48.316;11.558;2023-06-01T08:53:50;25.80;35.00
30288;DHT22;17103;48.316;11.558;2023-06-01T08:56:16;25.90;35.10
30288;DHT22;17103;48.316;11.558;2023-06-01T08:58:43;26.00;35.10
30288;DHT22;17103;48.316;11.558;2023-06-01T09:01:20;26.00;35.10
30288;DHT22;17103;48.316;11.558;2023-06-01T09:03:53;26.10;35.10
30288;DHT22;17103;48.316;11.558;2023-06-01T09:06:19;26.20;34.90
30288;DHT22;17103;48.316;11.558;2023-06-01T09:08:45;26.30;34.70
30288;DHT22;17103;48.316;11.558;2023-06-01T09:11:11;26.30;34.70
30288;DHT22;17103;48.316;11.558;2023-06-01T09:13:38;26.40;34.80
30288;DHT22;17103;48.316;11.558;2023-06-01T09:16:05;26.40;34.70
30288;DHT22;17103;48.316;11.558;2023-06-01T09:18:31;26.50;34.60
30288;DHT22;17103;48.316;11.558;2023-06-01T09:21:14;26.60;34.30
30288;DHT22;17103;48.316;11.558;2023-06-01T09:23:40;26.70;34.00
30288;DHT22;17103;48.316;11.558;2023-06-01T09:26:12;26.80;34.40
30288;DHT22;17103;48.316;11.558;2023-06-01T09:29:04;26.80;33.90
30288;DHT22;17103;48.316;11.558;2023-06-01T09:31:42;26.80;33.70
30288;DHT22;17103;48.316;11.558;2023-06-01T09:34:11;26.90;33.80
30288;DHT22;17103;48.316;11.558;2023-06-01T09:36:39;27.00;33.70
30288;DHT22;17103;48.316;11.558;2023-06-01T09:39:10;27.00;33.40
30288;DHT22;17103;48.316;11.558;2023-06-01T09:41:54;27.10;33.40
30288;DHT22;17103;48.316;11.558;2023-06-01T09:44:34;27.20;33.20
30288;DHT22;17103;48.316;11.558;2023-06-01T09:47:07;27.20;33.00
30288;DHT22;17103;48.316;11.558;2023-06-01T09:49:40;27.30;32.80
30288;DHT22;17103;48.316;11.558;2023-06-01T09:52:08;27.30;32.60
30288;DHT22;17103;48.316;11.558;2023-06-01T09:54:40;27.40;32.50
30288;DHT22;17103;48.316;11.558;2023-06-01T09:57:06;27.40;32.00
30288;DHT22;17103;48.316;11.558;2023-06-01T09:59:42;27.40;32.40
30288;DHT22;17103;48.316;11.558;2023-06-01T10:02:21;27.50;32.40
30288;DHT22;17103;48.316;11.558;2023-06-01T10:04:52;27.60;32.10
30288;DHT22;17103;48.316;11.558;2023-06-01T10:07:19;27.70;32.30
30288;DHT22;17103;48.316;11.558;2023-06-01T10:09:50;27.70;32.40
30288;DHT22;17103;48.316;11.558;2023-06-01T10:12:16;27.80;32.40
30288;DHT22;17103;48.316;11.558;2023-06-01T10:14:42;27.80;32.40
30288;DHT22;17103;48.316;11.558;2023-06-01T10:17:08;27.90;32.70
30288;DHT22;17103;48.316;11.558;2023-06-01T10:19:36;27.90;32.40
30288;DHT22;17103;48.316;11.558;2023-06-01T10:22:03;28.00;32.10
30288;DHT22;17103;48.316;11.558;2023-06-01T10:24:29;28.00;32.30
30288;DHT22;17103;48.316;11.558;2023-06-01T10:29:42;28.10;32.00
30288;DHT22;17103;48.316;11.558;2023-06-01T10:35:03;28.20;32.00
30288;DHT22;17103;48.316;11.558;2023-06-01T10:37:29;28.30;31.90
30288;DHT22;17103;48.316;11.558;2023-06-01T10:42:43;28.40;31.50
30288;DHT22;17103;48.316;11.558;2023-06-01T10:45:35;28.50;31.80
30288;DHT22;17103;48.316;11.558;2023-06-01T10:48:02;28.50;31.70
30288;DHT22;17103;48.316;11.558;2023-06-01T10:50:27;28.60;31.90
30288;DHT22;17103;48.316;11.558;2023-06-01T10:52:54;28.70;31.70
30288;DHT22;17103;48.316;11.558;2023-06-01T10:55:22;28.80;31.60
30288;DHT22;17103;48.316;11.558;2023-06-01T10:57:48;28.80;31.30
30288;DHT22;17103;48.316;11.558;2023-06-01T11:05:43;28.90;31.30
30288;DHT22;17103;48.316;11.558;2023-06-01T11:13:19;29.10;31.50
30288;DHT22;17103;48.316;11.558;2023-06-01T11:18:49;29.20;30.90
30288;DHT22;17103;48.316;11.558;2023-06-01T11:21:24;29.30;31.00
30288;DHT22;17103;48.316;11.558;2023-06-01T11:23:59;29.30;30.50
30288;DHT22;17103;48.316;11.558;2023-06-01T11:26:31;29.40;30.40
30288;DHT22;17103;48.316;11.558;2023-06-01T11:29:14;29.50;30.80
30288;DHT22;17103;48.316;11.558;2023-06-01T11:31:42;29.60;30.90
30288;DHT22;17103;48.316;11.558;2023-06-01T11:34:10;29.60;31.40
30288;DHT22;17103;48.316;11.558;2023-06-01T11:36:47;29.60;30.90
30288;DHT22;17103;48.316;11.558;2023-06-01T11:39:24;29.70;30.70
30288;DHT22;17103;48.316;11.558;2023-06-01T11:44:31;29.70;30.80
30288;DHT22;17103;48.316;11.558;2023-06-01T11:46:57;29.80;30.80
30288;DHT22;17103;48.316;11.558;2023-06-01T11:49:24;29.80;30.60
30288;DHT22;17103;48.316;11.558;2023-06-01T11:51:50;29.80;30.60
30288;DHT22;17103;48.316;11.558;2023-06-01T11:54:25;29.90;30.70
30288;DHT22;17103;48.316;11.558;2023-06-01T11:56:52;29.90;29.60
30288;DHT22;17103;48.316;11.558;2023-06-01T11:59:18;30.00;30.00
30288;DHT22;17103;48.316;11.558;2023-06-01T12:01:46;30.00;30.00
30288;DHT22;17103;48.316;11.558;2023-06-01T12:04:16;30.00;29.80
30288;DHT22;17103;48.316;11.558;2023-06-01T12:06:43;30.10;30.30
30288;DHT22;17103;48.316;11.558;2023-06-01T12:09:12;30.00;30.30
30288;DHT22;17103;48.316;11.558;2023-06-01T12:11:38;30.00;30.30
30288;DHT22;17103;48.316;11.558;2023-06-01T12:14:05;30.10;30.30
30288;DHT22;17103;48.316;11.558;2023-06-01T12:19:20;30.20;30.10
30288;DHT22;17103;48.316;11.558;2023-06-01T12:21:47;30.20;30.40
30288;DHT22;17103;48.316;11.558;2023-06-01T12:24:14;30.30;30.40
30288;DHT22;17103;48.316;11.558;2023-06-01T12:26:40;30.30;29.80
30288;DHT22;17103;48.316;11.558;2023-06-01T12:29:06;30.40;29.60
30288;DHT22;17103;48.316;11.558;2023-06-01T12:31:32;30.40;29.90
30288;DHT22;17103;48.316;11.558;2023-06-01T12:33:57;30.50;29.20
30288;DHT22;17103;48.316;11.558;2023-06-01T12:36:34;30.50;29.10
30288;DHT22;17103;48.316;11.558;2023-06-01T12:39:01;30.60;28.60
30288;DHT22;17103;48.316;11.558;2023-06-01T12:41:29;30.60;29.40
30288;DHT22;17103;48.316;11.558;2023-06-01T12:43:55;30.60;29.40
30288;DHT22;17103;48.316;11.558;2023-06-01T12:46:27;30.70;29.30
30288;DHT22;17103;48.316;11.558;2023-06-01T12:48:54;30.70;28.70
30288;DHT22;17103;48.316;11.558;2023-06-01T12:51:35;30.90;29.10
30288;DHT22;17103;48.316;11.558;2023-06-01T12:54:02;30.90;29.70
30288;DHT22;17103;48.316;11.558;2023-06-01T12:56:28;31.00;29.80
30288;DHT22;17103;48.316;11.558;2023-06-01T12:58:54;31.10;29.90
30288;DHT22;17103;48.316;11.558;2023-06-01T13:01:20;31.20;29.40
30288;DHT22;17103;48.316;11.558;2023-06-01T13:03:47;31.30;29.50
30288;DHT22;17103;48.316;11.558;2023-06-01T13:06:15;31.30;29.20
30288;DHT22;17103;48.316;11.558;2023-06-01T13:08:42;31.40;29.50
30288;DHT22;17103;48.316;11.558;2023-06-01T13:11:08;31.50;29.50
30288;DHT22;17103;48.316;11.558;2023-06-01T13:13:34;31.60;29.30
30288;DHT22;17103;48.316;11.558;2023-06-01T13:16:00;31.70;28.90
30288;DHT22;17103;48.316;11.558;2023-06-01T13:18:27;31.80;28.80
30288;DHT22;17103;48.316;11.558;2023-06-01T13:20:52;31.80;28.90
30288;DHT22;17103;48.316;11.558;2023-06-01T13:23:18;31.80;28.90
30288;DHT22;17103;48.316;11.558;2023-06-01T13:25:44;31.80;27.90
30288;DHT22;17103;48.316;11.558;2023-06-01T13:28:10;31.80;27.60
30288;DHT22;17103;48.316;11.558;2023-06-01T13:30:38;31.80;27.40
30288;DHT22;17103;48.316;11.558;2023-06-01T13:33:05;31.80;27.00
30288;DHT22;17103;48.316;11.558;2023-06-01T13:35:31;31.80;27.80
30288;DHT22;17103;48.316;11.558;2023-06-01T13:37:57;31.80;28.20
30288;DHT22;17103;48.316;11.558;2023-06-01T13:40:24;31.80;28.00
30288;DHT22;17103;48.316;11.558;2023-06-01T13:42:51;31.90;27.80
30288;DHT22;17103;48.316;11.558;2023-06-01T13:45:20;31.90;27.40
30288;DHT22;17103;48.316;11.558;2023-06-01T13:47:47;31.90;28.00
30288;DHT22;17103;48.316;11.558;2023-06-01T13:50:15;32.10;27.90
30288;DHT22;17103;48.316;11.558;2023-06-01T13:52:41;32.10;28.10
30288;DHT22;17103;48.316;11.558;2023-06-01T13:55:11;32.10;27.70
30288;DHT22;17103;48.316;11.558;2023-06-01T13:57:40;32.30;27.80
30288;DHT22;17103;48.316;11.558;2023-06-01T14:00:08;32.40;27.60
30288;DHT22;17103;48.316;11.558;2023-06-01T14:02:34;32.50;27.50
30288;DHT22;17103;48.316;11.558;2023-06-01T14:05:01;32.60;27.10
30288;DHT22;17103;48.316;11.558;2023-06-01T14:07:27;32.80;27.60
30288;DHT22;17103;48.316;11.558;2023-06-01T14:09:53;32.80;27.60
30288;DHT22;17103;48.316;11.558;2023-06-01T14:12:18;33.00;27.30
30288;DHT22;17103;48.316;11.558;2023-06-01T14:14:44;33.00;27.20
30288;DHT22;17103;48.316;11.558;2023-06-01T14:17:10;33.10;27.30
30288;DHT22;17103;48.316;11.558;2023-06-01T14:19:36;33.20;27.00
30288;DHT22;17103;48.316;11.558;2023-06-01T14:22:02;33.30;26.90
30288;DHT22;17103;48.316;11.558;2023-06-01T14:24:27;33.30;26.90
30288;DHT22;17103;48.316;11.558;2023-06-01T14:26:53;33.40;26.80
30288;DHT22;17103;48.316;11.558;2023-06-01T14:29:19;33.40;26.80
30288;DHT22;17103;48.316;11.558;2023-06-01T14:31:45;33.40;27.00
30288;DHT22;17103;48.316;11.558;2023-06-01T14:34:11;33.40;26.60
30288;DHT22;17103;48.316;11.558;2023-06-01T14:36:37;33.50;27.00
30288;DHT22;17103;48.316;11.558;2023-06-01T14:39:03;33.50;26.70
30288;DHT22;17103;48.316;11.558;2023-06-01T14:41:28;33.60;26.40
30288;DHT22;17103;48.316;11.558;2023-06-01T14:43:54;33.60;26.60
30288;DHT22;17103;48.316;11.558;2023-06-01T14:46:20;33.70;26.60
30288;DHT22;17103;48.316;11.558;2023-06-01T14:48:46;33.80;26.80
30288;DHT22;17103;48.316;11.558;2023-06-01T14:51:12;33.90;26.70
30288;DHT22;17103;48.316;11.558;2023-06-01T14:53:38;33.90;26.60
30288;DHT22;17103;48.316;11.558;2023-06-01T14:56:05;34.00;26.50
30288;DHT22;17103;48.316;11.558;2023-06-01T14:58:31;34.10;26.00
30288;DHT22;17103;48.316;11.558;2023-06-01T15:00:57;34.30;26.40
30288;DHT22;17103;48.316;11.558;2023-06-01T15:03:24;34.40;26.00
30288;DHT22;17103;48.316;11.558;2023-06-01T15:05:50;34.40;26.10
30288;DHT22;17103;48.316;11.558;2023-06-01T15:08:17;34.50;25.80
30288;DHT22;17103;48.316;11.558;2023-06-01T15:10:46;34.70;25.60
30288;DHT22;17103;48.316;11.558;2023-06-01T15:13:12;34.70;25.20
30288;DHT22;17103;48.316;11.558;2023-06-01T15:15:41;34.80;25.40
30288;DHT22;17103;48.316;11.558;2023-06-01T15:18:07;34.90;25.70
30288;DHT22;17103;48.316;11.558;2023-06-01T15:20:32;35.00;25.70
30288;DHT22;17103;48.316;11.558;2023-06-01T15:22:58;35.20;25.30
30288;DHT22;17103;48.316;11.558;2023-06-01T15:25:24;35.10;23.90
30288;DHT22;17103;48.316;11.558;2023-06-01T15:27:50;35.10;23.60
30288;DHT22;17103;48.316;11.558;2023-06-01T15:30:16;35.10;24.90
30288;DHT22;17103;48.316;11.558;2023-06-01T15:32:41;35.10;25.20
30288;DHT22;17103;48.316;11.558;2023-06-01T15:35:07;35.10;25.50
30288;DHT22;17103;48.316;11.558;2023-06-01T15:37:34;35.10;24.90
30288;DHT22;17103;48.316;11.558;2023-06-01T15:40:00;35.10;25.30
30288;DHT22;17103;48.316;11.558;2023-06-01T15:42:25;35.10;25.40
30288;DHT22;17103;48.316;11.558;2023-06-01T15:44:51;35.20;24.30
30288;DHT22;17103;48.316;11.558;2023-06-01T15:47:16;35.20;24.50
30288;DHT22;17103;48.316;11.558;2023-06-01T15:49:42;35.20;24.50
30288;DHT22;17103;48.316;11.558;2023-06-01T15:52:08;35.20;24.60
30288;DHT22;17103;48.316;11.558;2023-06-01T15:54:35;35.20;24.80
30288;DHT22;17103;48.316;11.558;2023-06-01T15:57:01;35.20;24.70
30288;DHT22;17103;48.316;11.558;2023-06-01T15:59:29;35.20;24.70